Juprelle, Belgium
Current Conditions -  °F | °C
As of 3:50 PM on Thursday 30 Oct 2014 (Local Time) from EBLG Reporting Station
Clear Clear  
Wind Chill: 16°   Ceiling: Unl
Heat Index: 16°   Visibility: 6mi
Dew Point: 13°   Wind: 8mph
Humidity: 82%   Direction: 160°SSE
Pressure: 30.18"   Gusts: NA
Location:  50.71°N, 5.53°E
Report Text: EBLG 301450Z 16007KT CAVOK 16/13 Q1022 NOSIG
Loading
Personal Weather Stations






























Interactive Weather Map
Tropical Storm Tracking
New forecast layout! Learn more

10-Day Weather Forecast

Advertisements
Track Severe Weather on mobile